sensor_id;sensor_type;location;lat;lon;timestamp;P1;durP1;ratioP1;P2;durP2;ratioP2
55489;SDS011;44029;52.956;4.772;2023-02-08T00:02:15;30.65;;;12.02;;
55489;SDS011;44029;52.956;4.772;2023-02-08T00:04:41;27.60;;;11.70;;
55489;SDS011;44029;52.956;4.772;2023-02-08T00:07:06;27.23;;;11.65;;
55489;SDS011;44029;52.956;4.772;2023-02-08T00:09:32;23.27;;;10.88;;
55489;SDS011;44029;52.956;4.772;2023-02-08T00:11:57;28.77;;;12.40;;
55489;SDS011;44029;52.956;4.772;2023-02-08T00:14:23;32.50;;;11.68;;
55489;SDS011;44029;52.956;4.772;2023-02-08T00:16:48;23.13;;;10.75;;
55489;SDS011;44029;52.956;4.772;2023-02-08T00:19:14;25.52;;;11.20;;
55489;SDS011;44029;52.956;4.772;2023-02-08T00:21:39;29.33;;;11.65;;
55489;SDS011;44029;52.956;4.772;2023-02-08T00:24:04;29.17;;;11.73;;
55489;SDS011;44029;52.956;4.772;2023-02-08T00:26:30;28.90;;;11.90;;
55489;SDS011;44029;52.956;4.772;2023-02-08T00:28:56;28.40;;;11.73;;
55489;SDS011;44029;52.956;4.772;2023-02-08T00:31:21;22.75;;;10.63;;
55489;SDS011;44029;52.956;4.772;2023-02-08T00:33:46;96.70;;;40.25;;
55489;SDS011;44029;52.956;4.772;2023-02-08T00:36:12;61.45;;;26.75;;
55489;SDS011;44029;52.956;4.772;2023-02-08T00:38:37;34.17;;;14.05;;
55489;SDS011;44029;52.956;4.772;2023-02-08T00:41:03;43.70;;;19.33;;
55489;SDS011;44029;52.956;4.772;2023-02-08T00:43:28;38.67;;;16.33;;
55489;SDS011;44029;52.956;4.772;2023-02-08T00:45:54;28.90;;;13.38;;
55489;SDS011;44029;52.956;4.772;2023-02-08T00:48:20;23.13;;;11.38;;
55489;SDS011;44029;52.956;4.772;2023-02-08T00:50:55;27.45;;;10.88;;
55489;SDS011;44029;52.956;4.772;2023-02-08T00:53:27;20.15;;;9.98;;
55489;SDS011;44029;52.956;4.772;2023-02-08T00:55:52;32.05;;;12.00;;
55489;SDS011;44029;52.956;4.772;2023-02-08T00:58:19;27.38;;;11.63;;
55489;SDS011;44029;52.956;4.772;2023-02-08T01:00:44;28.42;;;13.07;;
55489;SDS011;44029;52.956;4.772;2023-02-08T01:03:10;22.85;;;10.40;;
55489;SDS011;44029;52.956;4.772;2023-02-08T01:05:38;22.67;;;10.50;;
55489;SDS011;44029;52.956;4.772;2023-02-08T01:08:03;36.22;;;15.52;;
55489;SDS011;44029;52.956;4.772;2023-02-08T01:10:29;26.83;;;11.80;;
55489;SDS011;44029;52.956;4.772;2023-02-08T01:12:55;23.65;;;10.18;;
55489;SDS011;44029;52.956;4.772;2023-02-08T01:15:20;22.45;;;10.80;;
55489;SDS011;44029;52.956;4.772;2023-02-08T01:17:45;30.77;;;10.82;;
55489;SDS011;44029;52.956;4.772;2023-02-08T01:20:11;24.35;;;10.07;;
55489;SDS011;44029;52.956;4.772;2023-02-08T01:22:36;24.38;;;10.98;;
55489;SDS011;44029;52.956;4.772;2023-02-08T01:25:01;29.88;;;10.98;;
55489;SDS011;44029;52.956;4.772;2023-02-08T01:27:27;21.40;;;10.50;;
55489;SDS011;44029;52.956;4.772;2023-02-08T01:29:52;23.83;;;9.95;;
55489;SDS011;44029;52.956;4.772;2023-02-08T01:32:17;22.58;;;11.15;;
55489;SDS011;44029;52.956;4.772;2023-02-08T01:34:43;21.05;;;10.27;;
55489;SDS011;44029;52.956;4.772;2023-02-08T01:37:08;24.33;;;10.77;;
55489;SDS011;44029;52.956;4.772;2023-02-08T01:39:33;22.10;;;10.18;;
55489;SDS011;44029;52.956;4.772;2023-02-08T01:41:59;25.40;;;10.63;;
55489;SDS011;44029;52.956;4.772;2023-02-08T01:49:52;18.00;;;8.43;;
55489;SDS011;44029;52.956;4.772;2023-02-08T01:52:19;21.70;;;10.02;;
55489;SDS011;44029;52.956;4.772;2023-02-08T01:54:50;24.83;;;10.13;;
55489;SDS011;44029;52.956;4.772;2023-02-08T01:57:24;26.52;;;10.07;;
55489;SDS011;44029;52.956;4.772;2023-02-08T01:59:54;25.63;;;10.90;;
55489;SDS011;44029;52.956;4.772;2023-02-08T02:02:23;22.02;;;9.85;;
55489;SDS011;44029;52.956;4.772;2023-02-08T02:04:50;19.15;;;10.18;;
55489;SDS011;44029;52.956;4.772;2023-02-08T02:07:17;19.48;;;9.68;;
55489;SDS011;44029;52.956;4.772;2023-02-08T02:09:46;24.00;;;10.50;;
55489;SDS011;44029;52.956;4.772;2023-02-08T02:12:17;18.52;;;8.98;;
55489;SDS011;44029;52.956;4.772;2023-02-08T02:14:43;25.83;;;10.05;;
55489;SDS011;44029;52.956;4.772;2023-02-08T02:17:10;23.52;;;11.18;;
55489;SDS011;44029;52.956;4.772;2023-02-08T02:19:47;23.02;;;9.45;;
55489;SDS011;44029;52.956;4.772;2023-02-08T02:39:06;26.33;;;11.13;;
55489;SDS011;44029;52.956;4.772;2023-02-08T02:48:04;21.23;;;8.90;;
55489;SDS011;44029;52.956;4.772;2023-02-08T02:50:45;25.45;;;9.98;;
55489;SDS011;44029;52.956;4.772;2023-02-08T02:55:57;25.48;;;10.57;;
55489;SDS011;44029;52.956;4.772;2023-02-08T02:58:28;23.80;;;10.02;;
55489;SDS011;44029;52.956;4.772;2023-02-08T03:00:57;24.92;;;9.65;;
55489;SDS011;44029;52.956;4.772;2023-02-08T03:03:24;20.50;;;9.90;;
55489;SDS011;44029;52.956;4.772;2023-02-08T03:05:52;22.85;;;10.32;;
55489;SDS011;44029;52.956;4.772;2023-02-08T03:11:24;23.17;;;10.00;;
55489;SDS011;44029;52.956;4.772;2023-02-08T03:19:38;23.83;;;9.82;;
55489;SDS011;44029;52.956;4.772;2023-02-08T03:24:49;19.02;;;9.40;;
55489;SDS011;44029;52.956;4.772;2023-02-08T03:27:21;18.67;;;9.73;;
55489;SDS011;44029;52.956;4.772;2023-02-08T03:37:49;21.40;;;9.70;;
55489;SDS011;44029;52.956;4.772;2023-02-08T03:40:17;21.13;;;9.95;;
55489;SDS011;44029;52.956;4.772;2023-02-08T03:42:47;21.42;;;10.05;;
55489;SDS011;44029;52.956;4.772;2023-02-08T03:45:19;21.67;;;9.77;;
55489;SDS011;44029;52.956;4.772;2023-02-08T03:47:49;21.55;;;9.48;;
55489;SDS011;44029;52.956;4.772;2023-02-08T03:50:18;26.63;;;9.95;;
55489;SDS011;44029;52.956;4.772;2023-02-08T03:52:46;18.92;;;9.00;;
55489;SDS011;44029;52.956;4.772;2023-02-08T03:55:20;23.63;;;11.88;;
55489;SDS011;44029;52.956;4.772;2023-02-08T03:57:56;25.73;;;10.70;;
55489;SDS011;44029;52.956;4.772;2023-02-08T04:00:27;22.95;;;9.73;;
55489;SDS011;44029;52.956;4.772;2023-02-08T04:03:01;20.30;;;10.57;;
55489;SDS011;44029;52.956;4.772;2023-02-08T04:05:32;26.40;;;10.60;;
55489;SDS011;44029;52.956;4.772;2023-02-08T04:07:57;21.45;;;10.82;;
55489;SDS011;44029;52.956;4.772;2023-02-08T04:10:23;25.20;;;11.65;;
55489;SDS011;44029;52.956;4.772;2023-02-08T04:12:48;23.60;;;11.20;;
55489;SDS011;44029;52.956;4.772;2023-02-08T04:15:14;24.80;;;12.43;;
55489;SDS011;44029;52.956;4.772;2023-02-08T04:17:40;22.10;;;11.15;;
55489;SDS011;44029;52.956;4.772;2023-02-08T04:20:05;24.48;;;11.82;;
55489;SDS011;44029;52.956;4.772;2023-02-08T04:22:31;32.75;;;12.75;;
55489;SDS011;44029;52.956;4.772;2023-02-08T04:24:57;28.25;;;13.18;;
55489;SDS011;44029;52.956;4.772;2023-02-08T04:27:23;30.48;;;14.40;;
55489;SDS011;44029;52.956;4.772;2023-02-08T04:29:48;27.45;;;11.90;;
55489;SDS011;44029;52.956;4.772;2023-02-08T04:32:13;27.20;;;12.30;;
55489;SDS011;44029;52.956;4.772;2023-02-08T04:34:39;27.05;;;12.23;;
55489;SDS011;44029;52.956;4.772;2023-02-08T04:37:05;31.05;;;14.65;;
55489;SDS011;44029;52.956;4.772;2023-02-08T04:39:31;31.27;;;13.93;;
55489;SDS011;44029;52.956;4.772;2023-02-08T04:41:56;28.27;;;13.45;;
55489;SDS011;44029;52.956;4.772;2023-02-08T04:44:21;28.13;;;13.43;;
55489;SDS011;44029;52.956;4.772;2023-02-08T04:46:47;27.35;;;13.02;;
55489;SDS011;44029;52.956;4.772;2023-02-08T04:49:12;29.73;;;12.90;;
55489;SDS011;44029;52.956;4.772;2023-02-08T04:51:38;32.17;;;13.38;;
55489;SDS011;44029;52.956;4.772;2023-02-08T04:54:03;30.77;;;14.63;;
55489;SDS011;44029;52.956;4.772;2023-02-08T04:56:28;30.90;;;14.07;;
55489;SDS011;44029;52.956;4.772;2023-02-08T04:58:54;30.40;;;14.80;;
55489;SDS011;44029;52.956;4.772;2023-02-08T05:01:19;31.48;;;13.93;;
55489;SDS011;44029;52.956;4.772;2023-02-08T05:03:44;23.55;;;13.75;;
55489;SDS011;44029;52.956;4.772;2023-02-08T05:06:10;33.58;;;16.83;;
55489;SDS011;44029;52.956;4.772;2023-02-08T05:08:35;30.58;;;15.30;;
55489;SDS011;44029;52.956;4.772;2023-02-08T05:11:01;31.73;;;15.27;;
55489;SDS011;44029;52.956;4.772;2023-02-08T05:13:26;32.67;;;13.13;;
55489;SDS011;44029;52.956;4.772;2023-02-08T05:15:51;27.83;;;13.93;;
55489;SDS011;44029;52.956;4.772;2023-02-08T05:18:17;28.33;;;12.98;;
55489;SDS011;44029;52.956;4.772;2023-02-08T05:20:42;30.08;;;14.80;;
55489;SDS011;44029;52.956;4.772;2023-02-08T05:23:08;30.42;;;14.80;;
55489;SDS011;44029;52.956;4.772;2023-02-08T05:25:33;28.08;;;15.20;;
55489;SDS011;44029;52.956;4.772;2023-02-08T05:27:59;29.70;;;14.95;;
55489;SDS011;44029;52.956;4.772;2023-02-08T05:30:24;35.42;;;15.90;;
55489;SDS011;44029;52.956;4.772;2023-02-08T05:32:50;27.30;;;14.50;;
55489;SDS011;44029;52.956;4.772;2023-02-08T05:35:15;31.27;;;14.68;;
55489;SDS011;44029;52.956;4.772;2023-02-08T05:37:40;36.20;;;15.98;;
55489;SDS011;44029;52.956;4.772;2023-02-08T05:40:06;28.80;;;13.95;;
55489;SDS011;44029;52.956;4.772;2023-02-08T05:42:32;25.70;;;14.48;;
55489;SDS011;44029;52.956;4.772;2023-02-08T05:44:57;28.40;;;13.95;;
55489;SDS011;44029;52.956;4.772;2023-02-08T05:47:22;30.48;;;15.45;;
55489;SDS011;44029;52.956;4.772;2023-02-08T05:49:48;31.23;;;14.55;;
55489;SDS011;44029;52.956;4.772;2023-02-08T05:52:13;31.73;;;14.18;;
55489;SDS011;44029;52.956;4.772;2023-02-08T05:54:38;31.58;;;14.93;;
55489;SDS011;44029;52.956;4.772;2023-02-08T05:57:03;31.35;;;14.93;;
55489;SDS011;44029;52.956;4.772;2023-02-08T05:59:29;28.45;;;14.48;;
55489;SDS011;44029;52.956;4.772;2023-02-08T06:01:54;29.42;;;14.73;;
55489;SDS011;44029;52.956;4.772;2023-02-08T06:04:20;28.77;;;14.25;;
55489;SDS011;44029;52.956;4.772;2023-02-08T06:06:45;32.75;;;16.02;;
55489;SDS011;44029;52.956;4.772;2023-02-08T06:09:10;33.33;;;16.52;;
55489;SDS011;44029;52.956;4.772;2023-02-08T06:11:36;33.80;;;16.50;;
55489;SDS011;44029;52.956;4.772;2023-02-08T06:14:01;34.03;;;18.13;;
55489;SDS011;44029;52.956;4.772;2023-02-08T06:16:27;34.95;;;16.98;;
55489;SDS011;44029;52.956;4.772;2023-02-08T06:18:53;30.52;;;17.08;;
55489;SDS011;44029;52.956;4.772;2023-02-08T06:21:18;38.13;;;17.88;;
55489;SDS011;44029;52.956;4.772;2023-02-08T06:23:44;36.92;;;17.85;;
55489;SDS011;44029;52.956;4.772;2023-02-08T06:26:09;34.55;;;18.10;;
55489;SDS011;44029;52.956;4.772;2023-02-08T06:28:35;26.50;;;12.30;;
55489;SDS011;44029;52.956;4.772;2023-02-08T06:31:00;33.83;;;16.65;;
55489;SDS011;44029;52.956;4.772;2023-02-08T06:33:26;32.25;;;16.60;;
55489;SDS011;44029;52.956;4.772;2023-02-08T06:35:51;35.00;;;16.58;;
55489;SDS011;44029;52.956;4.772;2023-02-08T06:38:17;36.03;;;17.58;;
55489;SDS011;44029;52.956;4.772;2023-02-08T06:40:45;33.78;;;16.80;;
55489;SDS011;44029;52.956;4.772;2023-02-08T06:43:11;36.95;;;16.90;;
55489;SDS011;44029;52.956;4.772;2023-02-08T06:45:36;34.08;;;16.52;;
55489;SDS011;44029;52.956;4.772;2023-02-08T06:48:01;35.40;;;18.38;;
55489;SDS011;44029;52.956;4.772;2023-02-08T06:50:27;35.75;;;16.98;;
55489;SDS011;44029;52.956;4.772;2023-02-08T06:52:52;35.58;;;17.45;;
55489;SDS011;44029;52.956;4.772;2023-02-08T06:55:18;45.88;;;18.92;;
55489;SDS011;44029;52.956;4.772;2023-02-08T06:57:43;34.63;;;16.42;;
55489;SDS011;44029;52.956;4.772;2023-02-08T07:00:09;26.63;;;14.82;;
55489;SDS011;44029;52.956;4.772;2023-02-08T07:02:34;39.80;;;16.33;;
55489;SDS011;44029;52.956;4.772;2023-02-08T07:05:00;33.58;;;15.63;;
55489;SDS011;44029;52.956;4.772;2023-02-08T07:07:26;32.67;;;16.77;;
55489;SDS011;44029;52.956;4.772;2023-02-08T07:09:51;35.05;;;16.60;;
55489;SDS011;44029;52.956;4.772;2023-02-08T07:12:16;30.48;;;16.10;;
55489;SDS011;44029;52.956;4.772;2023-02-08T07:14:42;30.52;;;16.35;;
55489;SDS011;44029;52.956;4.772;2023-02-08T07:17:08;31.23;;;15.13;;
55489;SDS011;44029;52.956;4.772;2023-02-08T07:19:34;32.97;;;16.08;;
55489;SDS011;44029;52.956;4.772;2023-02-08T07:22:00;28.33;;;14.93;;
55489;SDS011;44029;52.956;4.772;2023-02-08T07:24:29;26.27;;;14.23;;
55489;SDS011;44029;52.956;4.772;2023-02-08T07:26:54;35.15;;;16.63;;
55489;SDS011;44029;52.956;4.772;2023-02-08T07:29:20;31.92;;;15.68;;
55489;SDS011;44029;52.956;4.772;2023-02-08T07:31:45;33.70;;;16.45;;
55489;SDS011;44029;52.956;4.772;2023-02-08T07:34:10;32.25;;;17.67;;
55489;SDS011;44029;52.956;4.772;2023-02-08T07:36:36;36.42;;;17.20;;
55489;SDS011;44029;52.956;4.772;2023-02-08T07:39:01;28.92;;;15.65;;
55489;SDS011;44029;52.956;4.772;2023-02-08T07:41:27;31.05;;;16.15;;
55489;SDS011;44029;52.956;4.772;2023-02-08T07:43:52;27.00;;;14.63;;
55489;SDS011;44029;52.956;4.772;2023-02-08T07:46:18;26.98;;;14.73;;
55489;SDS011;44029;52.956;4.772;2023-02-08T07:48:45;36.67;;;16.98;;
55489;SDS011;44029;52.956;4.772;2023-02-08T07:51:11;36.15;;;16.65;;
55489;SDS011;44029;52.956;4.772;2023-02-08T07:53:37;27.45;;;15.65;;
55489;SDS011;44029;52.956;4.772;2023-02-08T07:56:04;28.73;;;16.33;;
55489;SDS011;44029;52.956;4.772;2023-02-08T07:58:29;32.50;;;16.60;;
55489;SDS011;44029;52.956;4.772;2023-02-08T08:00:55;28.67;;;14.82;;
55489;SDS011;44029;52.956;4.772;2023-02-08T08:03:21;29.95;;;15.07;;
55489;SDS011;44029;52.956;4.772;2023-02-08T08:05:47;28.45;;;14.82;;
55489;SDS011;44029;52.956;4.772;2023-02-08T08:08:13;35.10;;;16.85;;
55489;SDS011;44029;52.956;4.772;2023-02-08T08:10:38;31.52;;;16.17;;
55489;SDS011;44029;52.956;4.772;2023-02-08T08:13:04;26.60;;;13.60;;
55489;SDS011;44029;52.956;4.772;2023-02-08T08:15:29;28.63;;;15.35;;
55489;SDS011;44029;52.956;4.772;2023-02-08T08:17:55;34.72;;;17.33;;
55489;SDS011;44029;52.956;4.772;2023-02-08T08:20:20;31.42;;;15.38;;
55489;SDS011;44029;52.956;4.772;2023-02-08T08:22:46;30.52;;;15.35;;
55489;SDS011;44029;52.956;4.772;2023-02-08T08:25:11;30.10;;;16.10;;
55489;SDS011;44029;52.956;4.772;2023-02-08T08:27:37;26.40;;;11.38;;
55489;SDS011;44029;52.956;4.772;2023-02-08T08:30:04;29.50;;;15.38;;
55489;SDS011;44029;52.956;4.772;2023-02-08T08:32:31;27.00;;;14.85;;
55489;SDS011;44029;52.956;4.772;2023-02-08T08:34:56;30.02;;;14.45;;
55489;SDS011;44029;52.956;4.772;2023-02-08T08:37:21;32.00;;;14.65;;
55489;SDS011;44029;52.956;4.772;2023-02-08T08:39:47;27.17;;;14.20;;
55489;SDS011;44029;52.956;4.772;2023-02-08T08:42:12;26.90;;;14.40;;
55489;SDS011;44029;52.956;4.772;2023-02-08T08:44:37;28.27;;;15.85;;
55489;SDS011;44029;52.956;4.772;2023-02-08T08:47:03;29.00;;;15.27;;
55489;SDS011;44029;52.956;4.772;2023-02-08T08:49:29;30.83;;;14.95;;
55489;SDS011;44029;52.956;4.772;2023-02-08T08:51:55;30.90;;;13.95;;
55489;SDS011;44029;52.956;4.772;2023-02-08T08:54:21;27.83;;;13.85;;
55489;SDS011;44029;52.956;4.772;2023-02-08T08:56:46;25.65;;;12.00;;
55489;SDS011;44029;52.956;4.772;2023-02-08T08:59:12;32.78;;;12.93;;
55489;SDS011;44029;52.956;4.772;2023-02-08T09:01:38;21.90;;;11.23;;
55489;SDS011;44029;52.956;4.772;2023-02-08T09:04:06;18.33;;;11.07;;
55489;SDS011;44029;52.956;4.772;2023-02-08T09:06:31;21.00;;;10.95;;
55489;SDS011;44029;52.956;4.772;2023-02-08T09:08:57;23.38;;;12.43;;
55489;SDS011;44029;52.956;4.772;2023-02-08T09:11:22;22.13;;;11.15;;
55489;SDS011;44029;52.956;4.772;2023-02-08T09:13:47;19.50;;;10.30;;
55489;SDS011;44029;52.956;4.772;2023-02-08T09:16:17;21.45;;;10.98;;
55489;SDS011;44029;52.956;4.772;2023-02-08T09:18:43;27.58;;;11.95;;
55489;SDS011;44029;52.956;4.772;2023-02-08T09:21:10;13.95;;;8.35;;
55489;SDS011;44029;52.956;4.772;2023-02-08T09:23:37;18.75;;;10.05;;
55489;SDS011;44029;52.956;4.772;2023-02-08T09:26:03;18.05;;;10.65;;
55489;SDS011;44029;52.956;4.772;2023-02-08T09:28:31;22.30;;;10.25;;
55489;SDS011;44029;52.956;4.772;2023-02-08T09:30:56;16.17;;;8.68;;
55489;SDS011;44029;52.956;4.772;2023-02-08T09:33:23;15.32;;;8.35;;
55489;SDS011;44029;52.956;4.772;2023-02-08T09:35:48;14.77;;;8.23;;
55489;SDS011;44029;52.956;4.772;2023-02-08T09:38:13;25.15;;;10.35;;
55489;SDS011;44029;52.956;4.772;2023-02-08T09:40:48;13.60;;;7.05;;
55489;SDS011;44029;52.956;4.772;2023-02-08T09:46:42;13.85;;;7.93;;
55489;SDS011;44029;52.956;4.772;2023-02-08T09:49:17;11.77;;;6.18;;
55489;SDS011;44029;52.956;4.772;2023-02-08T09:51:50;14.13;;;7.35;;
55489;SDS011;44029;52.956;4.772;2023-02-08T09:56:52;14.85;;;7.35;;
55489;SDS011;44029;52.956;4.772;2023-02-08T09:59:28;16.40;;;7.75;;
55489;SDS011;44029;52.956;4.772;2023-02-08T10:04:51;12.98;;;7.13;;
55489;SDS011;44029;52.956;4.772;2023-02-08T10:07:20;15.95;;;8.07;;
55489;SDS011;44029;52.956;4.772;2023-02-08T10:09:46;16.90;;;7.82;;
55489;SDS011;44029;52.956;4.772;2023-02-08T10:12:17;13.88;;;6.70;;
55489;SDS011;44029;52.956;4.772;2023-02-08T10:17:59;14.20;;;6.65;;
55489;SDS011;44029;52.956;4.772;2023-02-08T10:37:45;22.20;;;8.52;;
55489;SDS011;44029;52.956;4.772;2023-02-08T10:42:44;10.60;;;5.80;;
55489;SDS011;44029;52.956;4.772;2023-02-08T10:47:49;9.05;;;5.93;;
55489;SDS011;44029;52.956;4.772;2023-02-08T10:52:55;13.50;;;6.40;;
55489;SDS011;44029;52.956;4.772;2023-02-08T10:55:21;17.90;;;7.28;;
55489;SDS011;44029;52.956;4.772;2023-02-08T10:57:47;13.30;;;7.00;;
55489;SDS011;44029;52.956;4.772;2023-02-08T11:00:20;14.18;;;6.72;;
55489;SDS011;44029;52.956;4.772;2023-02-08T11:02:51;14.55;;;7.18;;
55489;SDS011;44029;52.956;4.772;2023-02-08T11:05:18;12.13;;;7.05;;
55489;SDS011;44029;52.956;4.772;2023-02-08T11:08:16;16.73;;;6.53;;
55489;SDS011;44029;52.956;4.772;2023-02-08T11:10:44;12.10;;;6.68;;
55489;SDS011;44029;52.956;4.772;2023-02-08T11:13:20;14.90;;;6.70;;
55489;SDS011;44029;52.956;4.772;2023-02-08T11:15:54;11.77;;;7.03;;
55489;SDS011;44029;52.956;4.772;2023-02-08T11:18:29;14.68;;;7.22;;
55489;SDS011;44029;52.956;4.772;2023-02-08T11:20:59;14.43;;;7.03;;
55489;SDS011;44029;52.956;4.772;2023-02-08T11:23:35;12.30;;;5.53;;
55489;SDS011;44029;52.956;4.772;2023-02-08T11:26:17;11.20;;;7.00;;
55489;SDS011;44029;52.956;4.772;2023-02-08T11:34:21;17.83;;;7.38;;
55489;SDS011;44029;52.956;4.772;2023-02-08T11:36:49;14.75;;;7.25;;
55489;SDS011;44029;52.956;4.772;2023-02-08T11:39:38;17.48;;;8.05;;
55489;SDS011;44029;52.956;4.772;2023-02-08T11:42:04;14.75;;;7.13;;
55489;SDS011;44029;52.956;4.772;2023-02-08T11:44:34;18.05;;;7.72;;
55489;SDS011;44029;52.956;4.772;2023-02-08T11:47:06;18.27;;;9.05;;
55489;SDS011;44029;52.956;4.772;2023-02-08T11:49:38;14.65;;;7.95;;
55489;SDS011;44029;52.956;4.772;2023-02-08T11:52:06;15.48;;;7.70;;
55489;SDS011;44029;52.956;4.772;2023-02-08T11:54:43;15.35;;;7.47;;
55489;SDS011;44029;52.956;4.772;2023-02-08T11:57:17;13.43;;;7.38;;
55489;SDS011;44029;52.956;4.772;2023-02-08T12:00:11;19.70;;;8.15;;
55489;SDS011;44029;52.956;4.772;2023-02-08T12:02:41;18.92;;;7.45;;
55489;SDS011;44029;52.956;4.772;2023-02-08T12:05:15;14.70;;;7.07;;
55489;SDS011;44029;52.956;4.772;2023-02-08T12:10:52;8.88;;;5.38;;
55489;SDS011;44029;52.956;4.772;2023-02-08T12:18:34;21.75;;;8.55;;
55489;SDS011;44029;52.956;4.772;2023-02-08T12:21:03;16.90;;;7.43;;
55489;SDS011;44029;52.956;4.772;2023-02-08T12:23:52;14.32;;;8.10;;
55489;SDS011;44029;52.956;4.772;2023-02-08T12:34:09;15.10;;;7.50;;
55489;SDS011;44029;52.956;4.772;2023-02-08T12:48:38;14.18;;;7.28;;
55489;SDS011;44029;52.956;4.772;2023-02-08T12:53:41;17.88;;;8.30;;
55489;SDS011;44029;52.956;4.772;2023-02-08T12:56:21;18.05;;;7.32;;
55489;SDS011;44029;52.956;4.772;2023-02-08T12:58:54;11.23;;;7.07;;
55489;SDS011;44029;52.956;4.772;2023-02-08T13:04:00;13.32;;;8.38;;
55489;SDS011;44029;52.956;4.772;2023-02-08T13:06:35;14.88;;;8.18;;
55489;SDS011;44029;52.956;4.772;2023-02-08T13:09:07;17.00;;;7.40;;
55489;SDS011;44029;52.956;4.772;2023-02-08T13:11:59;17.45;;;7.07;;
55489;SDS011;44029;52.956;4.772;2023-02-08T13:14:32;13.15;;;7.63;;
55489;SDS011;44029;52.956;4.772;2023-02-08T13:19:46;14.48;;;8.57;;
55489;SDS011;44029;52.956;4.772;2023-02-08T13:22:16;23.48;;;10.32;;
55489;SDS011;44029;52.956;4.772;2023-02-08T13:24:44;14.93;;;8.48;;
55489;SDS011;44029;52.956;4.772;2023-02-08T13:27:18;15.15;;;8.18;;
55489;SDS011;44029;52.956;4.772;2023-02-08T13:29:45;20.35;;;8.38;;
55489;SDS011;44029;52.956;4.772;2023-02-08T13:32:28;20.45;;;8.77;;
55489;SDS011;44029;52.956;4.772;2023-02-08T13:35:00;15.18;;;8.25;;
55489;SDS011;44029;52.956;4.772;2023-02-08T13:37:31;14.77;;;8.25;;
55489;SDS011;44029;52.956;4.772;2023-02-08T13:43:35;12.75;;;7.18;;
55489;SDS011;44029;52.956;4.772;2023-02-08T13:45:43;13.13;;;7.57;;
55489;SDS011;44029;52.956;4.772;2023-02-08T13:48:13;15.80;;;7.55;;
55489;SDS011;44029;52.956;4.772;2023-02-08T13:50:43;14.27;;;7.40;;
55489;SDS011;44029;52.956;4.772;2023-02-08T13:53:12;15.90;;;6.70;;
55489;SDS011;44029;52.956;4.772;2023-02-08T14:01:04;14.82;;;7.20;;
55489;SDS011;44029;52.956;4.772;2023-02-08T14:03:31;27.27;;;8.23;;
55489;SDS011;44029;52.956;4.772;2023-02-08T14:05:58;14.30;;;7.63;;
55489;SDS011;44029;52.956;4.772;2023-02-08T14:16:43;11.98;;;6.90;;
55489;SDS011;44029;52.956;4.772;2023-02-08T14:21:48;11.38;;;6.40;;
55489;SDS011;44029;52.956;4.772;2023-02-08T14:32:26;16.02;;;7.95;;
55489;SDS011;44029;52.956;4.772;2023-02-08T14:35:02;10.68;;;6.22;;
55489;SDS011;44029;52.956;4.772;2023-02-08T14:37:31;14.38;;;6.82;;
55489;SDS011;44029;52.956;4.772;2023-02-08T14:45:30;12.63;;;6.32;;
55489;SDS011;44029;52.956;4.772;2023-02-08T14:47:59;14.77;;;6.38;;
55489;SDS011;44029;52.956;4.772;2023-02-08T14:50:32;13.40;;;6.10;;
55489;SDS011;44029;52.956;4.772;2023-02-08T14:55:36;12.63;;;6.38;;
55489;SDS011;44029;52.956;4.772;2023-02-08T14:58:26;13.02;;;6.93;;
55489;SDS011;44029;52.956;4.772;2023-02-08T15:00:54;10.63;;;5.45;;
55489;SDS011;44029;52.956;4.772;2023-02-08T15:03:24;9.52;;;5.63;;
55489;SDS011;44029;52.956;4.772;2023-02-08T15:08:36;6.18;;;3.97;;
55489;SDS011;44029;52.956;4.772;2023-02-08T15:11:02;7.03;;;4.15;;
55489;SDS011;44029;52.956;4.772;2023-02-08T15:13:27;6.55;;;4.03;;
55489;SDS011;44029;52.956;4.772;2023-02-08T15:15:54;6.93;;;3.83;;
55489;SDS011;44029;52.956;4.772;2023-02-08T15:18:22;11.82;;;4.35;;
55489;SDS011;44029;52.956;4.772;2023-02-08T15:23:30;9.40;;;4.75;;
55489;SDS011;44029;52.956;4.772;2023-02-08T15:26:16;25.00;;;11.15;;
55489;SDS011;44029;52.956;4.772;2023-02-08T15:28:45;6.10;;;3.53;;
55489;SDS011;44029;52.956;4.772;2023-02-08T15:31:14;9.13;;;4.32;;
55489;SDS011;44029;52.956;4.772;2023-02-08T15:33:43;8.13;;;4.03;;
55489;SDS011;44029;52.956;4.772;2023-02-08T15:36:24;10.35;;;4.65;;
55489;SDS011;44029;52.956;4.772;2023-02-08T15:38:53;7.40;;;4.35;;
55489;SDS011;44029;52.956;4.772;2023-02-08T15:41:28;8.77;;;4.35;;
55489;SDS011;44029;52.956;4.772;2023-02-08T15:46:53;13.85;;;4.30;;
55489;SDS011;44029;52.956;4.772;2023-02-08T15:49:22;7.45;;;3.80;;
55489;SDS011;44029;52.956;4.772;2023-02-08T15:51:55;6.50;;;3.92;;
55489;SDS011;44029;52.956;4.772;2023-02-08T15:54:22;9.32;;;3.50;;
55489;SDS011;44029;52.956;4.772;2023-02-08T15:56:49;15.70;;;5.80;;
55489;SDS011;44029;52.956;4.772;2023-02-08T15:59:22;6.72;;;3.65;;
55489;SDS011;44029;52.956;4.772;2023-02-08T16:01:51;13.38;;;4.13;;
55489;SDS011;44029;52.956;4.772;2023-02-08T16:04:17;11.55;;;4.53;;
55489;SDS011;44029;52.956;4.772;2023-02-08T16:06:44;10.38;;;4.47;;
55489;SDS011;44029;52.956;4.772;2023-02-08T16:09:17;59.42;;;21.88;;
55489;SDS011;44029;52.956;4.772;2023-02-08T16:11:46;10.25;;;4.72;;
55489;SDS011;44029;52.956;4.772;2023-02-08T16:14:14;7.50;;;4.50;;
55489;SDS011;44029;52.956;4.772;2023-02-08T16:16:43;23.50;;;12.55;;
55489;SDS011;44029;52.956;4.772;2023-02-08T16:19:24;23.00;;;9.18;;
55489;SDS011;44029;52.956;4.772;2023-02-08T16:22:13;14.45;;;7.43;;
55489;SDS011;44029;52.956;4.772;2023-02-08T16:24:45;15.18;;;7.65;;
55489;SDS011;44029;52.956;4.772;2023-02-08T16:27:29;13.57;;;5.72;;
55489;SDS011;44029;52.956;4.772;2023-02-08T16:29:55;14.80;;;6.70;;
55489;SDS011;44029;52.956;4.772;2023-02-08T16:32:28;16.10;;;6.50;;
55489;SDS011;44029;52.956;4.772;2023-02-08T16:34:56;15.23;;;6.13;;
55489;SDS011;44029;52.956;4.772;2023-02-08T16:37:24;13.30;;;6.70;;
55489;SDS011;44029;52.956;4.772;2023-02-08T16:44:57;13.35;;;6.53;;
55489;SDS011;44029;52.956;4.772;2023-02-08T16:50:17;16.55;;;8.45;;
55489;SDS011;44029;52.956;4.772;2023-02-08T16:52:46;11.80;;;5.80;;
55489;SDS011;44029;52.956;4.772;2023-02-08T16:55:14;11.00;;;6.35;;
55489;SDS011;44029;52.956;4.772;2023-02-08T17:00:13;11.80;;;5.28;;
55489;SDS011;44029;52.956;4.772;2023-02-08T17:02:47;71.43;;;31.13;;
55489;SDS011;44029;52.956;4.772;2023-02-08T17:05:12;25.33;;;10.55;;
55489;SDS011;44029;52.956;4.772;2023-02-08T17:07:38;12.30;;;5.53;;
55489;SDS011;44029;52.956;4.772;2023-02-08T17:10:05;49.42;;;31.38;;
55489;SDS011;44029;52.956;4.772;2023-02-08T17:12:31;25.55;;;15.90;;
55489;SDS011;44029;52.956;4.772;2023-02-08T17:14:57;15.75;;;7.88;;
55489;SDS011;44029;52.956;4.772;2023-02-08T17:17:22;17.55;;;9.05;;
55489;SDS011;44029;52.956;4.772;2023-02-08T17:19:47;19.42;;;9.70;;
55489;SDS011;44029;52.956;4.772;2023-02-08T17:22:13;14.00;;;6.28;;
55489;SDS011;44029;52.956;4.772;2023-02-08T17:24:38;15.48;;;6.07;;
55489;SDS011;44029;52.956;4.772;2023-02-08T17:27:03;14.20;;;6.10;;
55489;SDS011;44029;52.956;4.772;2023-02-08T17:29:29;15.35;;;6.65;;
55489;SDS011;44029;52.956;4.772;2023-02-08T17:31:54;12.05;;;5.82;;
55489;SDS011;44029;52.956;4.772;2023-02-08T17:34:19;12.48;;;5.50;;
55489;SDS011;44029;52.956;4.772;2023-02-08T17:36:45;9.48;;;4.75;;
55489;SDS011;44029;52.956;4.772;2023-02-08T17:39:11;14.77;;;5.95;;